Map

Track Data

SID SEASON NUMBER BASIN SUBBASIN NAME ISO_TIME NATURE LAT LON WMO_WIND WMO_PRES WMO_AGENCY TRACK_TYPE DIST2LAND LANDFALL IFLAG USA_AGENCY USA_ATCF_ID USA_LAT USA_LON USA_RECORD USA_STATUS USA_WIND USA_PRES USA_SSHS USA_R34_NE USA_R34_SE USA_R34_SW USA_R34_NW USA_R50_NE USA_R50_SE USA_R50_SW USA_R50_NW USA_R64_NE USA_R64_SE USA_R64_SW USA_R64_NW USA_POCI USA_ROCI USA_RMW USA_EYE TOKYO_LAT TOKYO_LON TOKYO_GRADE TOKYO_WIND TOKYO_PRES TOKYO_R50_DIR TOKYO_R50_LONG TOKYO_R50_SHORT TOKYO_R30_DIR TOKYO_R30_LONG TOKYO_R30_SHORT TOKYO_LAND CMA_LAT CMA_LON CMA_CAT CMA_WIND CMA_PRES HKO_LAT HKO_LON HKO_CAT HKO_WIND HKO_PRES NEWDELHI_LAT NEWDELHI_LON NEWDELHI_GRADE NEWDELHI_WIND NEWDELHI_PRES NEWDELHI_CI NEWDELHI_DP NEWDELHI_POCI REUNION_LAT REUNION_LON REUNION_TYPE REUNION_WIND REUNION_PRES REUNION_TNUM REUNION_CI REUNION_RMW REUNION_R34_NE REUNION_R34_SE REUNION_R34_SW REUNION_R34_NW REUNION_R50_NE REUNION_R50_SE REUNION_R50_SW REUNION_R50_NW REUNION_R64_NE REUNION_R64_SE REUNION_R64_SW REUNION_R64_NW BOM_LAT BOM_LON BOM_TYPE BOM_WIND BOM_PRES BOM_TNUM BOM_CI BOM_RMW BOM_R34_NE BOM_R34_SE BOM_R34_SW BOM_R34_NW BOM_R50_NE BOM_R50_SE BOM_R50_SW BOM_R50_NW BOM_R64_NE BOM_R64_SE BOM_R64_SW BOM_R64_NW BOM_ROCI BOM_POCI BOM_EYE BOM_POS_METHOD BOM_PRES_METHOD NADI_LAT NADI_LON NADI_CAT NADI_WIND NADI_PRES WELLINGTON_LAT WELLINGTON_LON WELLINGTON_WIND WELLINGTON_PRES DS824_LAT DS824_LON DS824_STAGE DS824_WIND DS824_PRES TD9636_LAT TD9636_LON TD9636_STAGE TD9636_WIND TD9636_PRES TD9635_LAT TD9635_LON TD9635_WIND TD9635_PRES TD9635_ROCI NEUMANN_LAT NEUMANN_LON NEUMANN_CLASS NEUMANN_WIND NEUMANN_PRES MLC_LAT MLC_LON MLC_CLASS MLC_WIND MLC_PRES USA_GUST BOM_GUST BOM_GUST_PER REUNION_GUST REUNION_GUST_PER USA_SEAHGT USA_SEARAD_NE USA_SEARAD_SE USA_SEARAD_SW USA_SEARAD_NW STORM_SPEED STORM_DIR
1916135N21280 1916 22 NA CS NOT_NAMED 1916-05-13 12:00:00 TS 21.0000 -80.0000 25 hurdat_atl main 78 15 O_____________ hurdat_atl AL011916 21.0000 -80.0000 TD 25 -1 15 344
1916135N21280 1916 22 NA CS NOT_NAMED 1916-05-13 15:00:00 TS 21.6976 -80.2095 main 15 0 P_____________ AL011916 21.6976 -80.2095 TD 27 -1 15 345
1916135N21280 1916 22 NA NA NOT_NAMED 1916-05-13 18:00:00 TS 22.4000 -80.4000 30 hurdat_atl main 0 0 O_____________ hurdat_atl AL011916 22.4000 -80.4000 TD 30 -1 15 347
1916135N21280 1916 22 NA NA NOT_NAMED 1916-05-13 21:00:00 TS 23.1075 -80.5577 main 11 11 P_____________ AL011916 23.1075 -80.5577 TD 30 -1 14 349
1916135N21280 1916 22 NA NA NOT_NAMED 1916-05-14 00:00:00 TS 23.8000 -80.7000 30 hurdat_atl main 89 78 O_____________ hurdat_atl AL011916 23.8000 -80.7000 TD 30 -1 14 349
1916135N21280 1916 22 NA NA NOT_NAMED 1916-05-14 03:00:00 TS 24.4725 -80.8501 main 70 10 P_____________ AL011916 24.4725 -80.8501 TD 32 -1 13 348
1916135N21280 1916 22 NA GM NOT_NAMED 1916-05-14 06:00:00 TS 25.1000 -81.0000 35 1006 hurdat_atl main 10 0 O_____________ hurdat_atl AL011916 25.1000 -81.0000 L TS 35 1006 0 12 347
1916135N21280 1916 22 NA NA NOT_NAMED 1916-05-14 09:00:00 TS 25.6725 -81.1502 main 0 0 P_____________ AL011916 25.6725 -81.1502 TS 37 1005 0 11 346
1916135N21280 1916 22 NA NA NOT_NAMED 1916-05-14 12:00:00 TS 26.2000 -81.3000 40 hurdat_atl main 0 0 I_____________ hurdat_atl AL011916 26.2000 -81.3000 TS 40 1005 0 11 346
1916135N21280 1916 22 NA NA NOT_NAMED 1916-05-14 15:00:00 TS 26.7375 -81.4500 main 0 0 P_____________ AL011916 26.7375 -81.4500 TS 40 1004 0 10 345
1916135N21280 1916 22 NA NA NOT_NAMED 1916-05-14 18:00:00 TS 27.2000 -81.6000 40 1004 hurdat_atl main 0 0 O_____________ hurdat_atl AL011916 27.2000 -81.6000 TS 40 1004 0 8 341
1916135N21280 1916 22 NA NA NOT_NAMED 1916-05-14 21:00:00 TS 27.5375 -81.7576 main 0 0 P_____________ AL011916 27.5375 -81.7576 TS 40 0 7 336
1916135N21280 1916 22 NA NA NOT_NAMED 1916-05-15 00:00:00 TS 27.8000 -81.9000 40 hurdat_atl main 0 0 O_____________ hurdat_atl AL011916 27.8000 -81.9000 TS 40 0 6 336
1916135N21280 1916 22 NA NA NOT_NAMED 1916-05-15 03:00:00 TS 28.0425 -82.0151 main 0 0 P_____________ AL011916 28.0425 -82.0151 TS 37 0 5 340
1916135N21280 1916 22 NA NA NOT_NAMED 1916-05-15 06:00:00 TS 28.3000 -82.1000 35 hurdat_atl main 0 0 O_____________ hurdat_atl AL011916 28.3000 -82.1000 TS 35 0 6 345
1916135N21280 1916 22 NA NA NOT_NAMED 1916-05-15 09:00:00 TS 28.6200 -82.1872 main 0 0 P_____________ AL011916 28.6200 -82.1872 TS 35 0 7 353
1916135N21280 1916 22 NA NA NOT_NAMED 1916-05-15 12:00:00 TS 29.0000 -82.2000 35 hurdat_atl main 0 0 O_____________ hurdat_atl AL011916 29.0000 -82.2000 TS 35 0 8 6
1916135N21280 1916 22 NA NA NOT_NAMED 1916-05-15 15:00:00 TS 29.4200 -82.0949 main 0 0 P_____________ AL011916 29.4200 -82.0949 TS 35 0 9 16
1916135N21280 1916 22 NA NA NOT_NAMED 1916-05-15 18:00:00 TS 29.9000 -81.9000 35 hurdat_atl main 0 0 O_____________ hurdat_atl AL011916 29.9000 -81.9000 TS 35 0 11 19
1916135N21280 1916 22 NA NA NOT_NAMED 1916-05-15 21:00:00 TS 30.4274 -81.6871 main 0 0 P_____________ AL011916 30.4274 -81.6871 TS 35 0 12 21
1916135N21280 1916 22 NA NA NOT_NAMED 1916-05-16 00:00:00 TS 31.0000 -81.4000 35 hurdat_atl main 0 0 O_____________ hurdat_atl AL011916 31.0000 -81.4000 TS 35 0 13 25
1916135N21280 1916 22 NA NA NOT_NAMED 1916-05-16 03:00:00 TS 31.5848 -81.0444 main 18 0 P_____________ AL011916 31.5848 -81.0444 TS 35 0 14 30
1916135N21280 1916 22 NA NA NOT_NAMED 1916-05-16 06:00:00 TS 32.2000 -80.6000 35 hurdat_atl main 9 0 O_____________ hurdat_atl AL011916 32.2000 -80.6000 TS 35 0 15 33
1916135N21280 1916 22 NA NA NOT_NAMED 1916-05-16 09:00:00 TS 32.8122 -80.0936 main 0 0 P_____________ AL011916 32.8122 -80.0936 TS 35 0 16 35
1916135N21280 1916 22 NA NA NOT_NAMED 1916-05-16 12:00:00 TS 33.5000 -79.5000 35 hurdat_atl main 0 0 O_____________ hurdat_atl AL011916 33.5000 -79.5000 TS 35 0 18 35
1916135N21280 1916 22 NA NA NOT_NAMED 1916-05-16 15:00:00 TS 34.3046 -78.8436 main 0 0 P_____________ AL011916 34.3046 -78.8436 TS 35 0 21 34
1916135N21280 1916 22 NA NA NOT_NAMED 1916-05-16 18:00:00 TS 35.2000 -78.1000 35 hurdat_atl main 0 0 O_____________ hurdat_atl AL011916 35.2000 -78.1000 TS 35 0 22 35
1916135N21280 1916 22 NA NA NOT_NAMED 1916-05-16 21:00:00 TS 36.1346 -77.2860 main 0 0 P_____________ AL011916 36.1346 -77.2860 TS 37 0 23 36
1916135N21280 1916 22 NA NA NOT_NAMED 1916-05-17 00:00:00 ET 37.1000 -76.4000 40 hurdat_atl main 0 0 O_____________ hurdat_atl AL011916 37.1000 -76.4000 EX 40 -4 24 37
1916135N21280 1916 22 NA NA NOT_NAMED 1916-05-17 03:00:00 ET 38.0419 -75.4700 main 0 0 P_____________ AL011916 38.0419 -75.4700 EX 42 -4 24 38
1916135N21280 1916 22 NA NA NOT_NAMED 1916-05-17 06:00:00 ET 39.0000 -74.5000 45 hurdat_atl main 20 20 O_____________ hurdat_atl AL011916 39.0000 -74.5000 EX 45 -4 25 39
1916135N21280 1916 22 NA NA NOT_NAMED 1916-05-17 09:00:00 ET 39.9927 -73.4694 main 43 0 P_____________ AL011916 39.9927 -73.4694 EX 47 -4 25 37
1916135N21280 1916 22 NA NA NOT_NAMED 1916-05-17 12:00:00 ET 41.0000 -72.5000 50 990 hurdat_atl main 0 0 O_____________ hurdat_atl AL011916 41.0000 -72.5000 EX 50 990 -4 24 35
1916135N21280 1916 22 NA NA NOT_NAMED 1916-05-17 15:00:00 ET 41.9997 -71.6372 main 0 0 P_____________ AL011916 41.9997 -71.6372 EX 50 -4 23 29
1916135N21280 1916 22 NA NA NOT_NAMED 1916-05-17 18:00:00 ET 43.0000 -71.0000 50 hurdat_atl main 0 0 O_____________ hurdat_atl AL011916 43.0000 -71.0000 EX 50 -4 21 20
1916135N21280 1916 22 NA NA NOT_NAMED 1916-05-17 21:00:00 ET 43.9998 -70.6618 main 0 0 P_____________ AL011916 43.9998 -70.6618 EX 45 -4 20 10
1916135N21280 1916 22 NA NA NOT_NAMED 1916-05-18 00:00:00 ET 45.0000 -70.5000 40 hurdat_atl main 0 O_____________ hurdat_atl AL011916 45.0000 -70.5000 EX 40 -4 20 6

About IBTrACS Database

This database is a web-friendly format of International Best Track Archive for Climate Stewardship (IBTrACS), a global best track data archive curated by NOAA dating back to 1842.

Updated: 2021-10-08